X  CloseMetar Aviation Weather Data     EKSB Sønderborg Airport

Temperature

16°C Temperature

12°C Dewpoint

77% Humidity



Wind

14 KM/H

 9 MPH

 4 M/S

 8 KTS



310°
North West
Current Conditions

Light Showers, Rain Light Showers, Rain
Pressure 1012.92 (hPa) - 29.91 (in)
Visibility 0 (mi) - 0 (km)
Airport
Airport-code EKSB

Location Sønderborg Airport 40 (km)

Metar:
EKSB 151820Z AUTO 31008KT 9999NDV -SHRA BKN033/// 16/12 Q1013

Time: 15-07-2020 20:20